Terminal Aerodrome Forecast
Issued by NWS Charleston, WV

Current Version | Previous Version | Graphics & Text | Print | Product List | Glossary On
Versions: 1 2 3 4 5 6 7 8 9 10 11 12 13 14 15 16 17 18 19 20 21 22
000
FTUS41 KRLX 152000 AAA
TAFCRW
TAF AMD
KCRW 152000Z 1520/1618 30009KT P6SM BKN015
     FM152100 30010KT P6SM BKN025
     FM152200 32012G17KT P6SM BKN040
     FM160000 32009KT P6SM SCT040
     FM160300 32005KT P6SM FEW140
     FM160500 33004KT P6SM SKC
     FM160700 00000KT P6SM SKC
     FM161400 05004KT P6SM SKC=

USA.gov is the U.S. government's official web portal to all federal, state and local government web resources and services.